Time;durP1;ratioP1;P1;durP2;ratioP2;P2;SDS_P1;SDS_P2;PMS_P1;PMS_P2;Temp;Humidity;BMP_temperature;BMP_pressure;BME280_temperature;BME280_humidity;BME280_pressure;Samples;Min_cycle;Max_cycle;Signal;HPM_P1;HPM_P2
2022/10/21 00:00:33;;;;;;;5.20;2.97;;;;;;;;;;5055163;27;93285;-78
2022/10/21 00:02:59;;;;;;;5.20;3.58;;;;;;;;;;5056214;27;92419;-78
2022/10/21 00:05:26;;;;;;;4.72;3.08;;;;;;;;;;5038182;27;92535;-78
2022/10/21 00:07:52;;;;;;;7.18;3.03;;;;;;;;;;5036162;27;95740;-79
2022/10/21 00:10:19;;;;;;;7.78;2.90;;;;;;;;;;5036138;27;93380;-79
2022/10/21 00:12:45;;;;;;;4.72;3.50;;;;;;;;;;5039622;27;92767;-78
2022/10/21 00:15:11;;;;;;;4.60;3.00;;;;;;;;;;5057161;27;93144;-78
2022/10/21 00:17:38;;;;;;;7.45;2.97;;;;;;;;;;5055144;27;93451;-79
2022/10/21 00:20:06;;;;;;;6.53;3.00;;;;;;;;;;5059195;27;92463;-79
2022/10/21 00:22:32;;;;;;;5.18;3.05;;;;;;;;;;5037771;27;93363;-79
2022/10/21 00:24:59;;;;;;;3.75;3.30;;;;;;;;;;5056433;27;91759;-79
2022/10/21 00:27:26;;;;;;;3.47;3.17;;;;;;;;;;5055930;27;92478;-78
2022/10/21 00:29:52;;;;;;;6.95;3.15;;;;;;;;;;5055921;27;93377;-79
2022/10/21 00:32:18;;;;;;;4.25;3.10;;;;;;;;;;5051999;27;94930;-78
2022/10/21 00:34:45;;;;;;;4.05;3.20;;;;;;;;;;5052957;27;96876;-78
2022/10/21 00:37:12;;;;;;;4.95;3.45;;;;;;;;;;5055781;27;93445;-78
2022/10/21 00:39:38;;;;;;;5.95;3.13;;;;;;;;;;5055521;27;92549;-78
2022/10/21 00:42:05;;;;;;;5.32;3.00;;;;;;;;;;5057705;27;93453;-78
2022/10/21 00:44:33;;;;;;;5.93;3.35;;;;;;;;;;5056115;27;94247;-78
2022/10/21 00:47:01;;;;;;;5.53;3.42;;;;;;;;;;5035608;27;93057;-79
2022/10/21 00:49:36;;;;;;;5.13;3.10;;;;;;;;;;5054170;27;92731;-78
2022/10/21 00:52:04;;;;;;;4.03;3.20;;;;;;;;;;5037586;27;92602;-79
2022/10/21 00:54:31;;;;;;;3.75;3.17;;;;;;;;;;5055256;27;93054;-79
2022/10/21 00:56:57;;;;;;;6.32;3.05;;;;;;;;;;5052922;27;96319;-79
2022/10/21 00:59:28;;;;;;;5.43;3.13;;;;;;;;;;5055746;27;92482;-79
2022/10/21 01:01:54;;;;;;;5.07;3.10;;;;;;;;;;5057299;27;92968;-79
2022/10/21 01:04:21;;;;;;;4.43;3.08;;;;;;;;;;5054064;27;94543;-78
2022/10/21 01:06:47;;;;;;;4.00;3.10;;;;;;;;;;5055721;27;93465;-78
2022/10/21 01:09:15;;;;;;;5.22;3.38;;;;;;;;;;5054980;27;96683;-78
2022/10/21 01:11:43;;;;;;;13.35;3.60;;;;;;;;;;5037894;27;92549;-78
2022/10/21 01:14:17;;;;;;;3.40;3.15;;;;;;;;;;5055389;27;94229;-78
2022/10/21 01:16:47;;;;;;;6.75;3.17;;;;;;;;;;5034835;27;93389;-78
2022/10/21 01:19:14;;;;;;;;;;;;;;;;;;5039878;27;92477;-79
2022/10/21 01:21:42;;;;;;;7.22;2.78;;;;;;;;;;5036371;27;119906;-78
2022/10/21 01:24:09;;;;;;;5.82;3.40;;;;;;;;;;5057180;27;93867;-78
2022/10/21 01:26:44;;;;;;;7.57;3.38;;;;;;;;;;5054932;27;92767;-78
2022/10/21 01:29:13;;;;;;;3.40;3.00;;;;;;;;;;5041551;27;93861;-79
2022/10/21 01:31:39;;;;;;;5.03;3.00;;;;;;;;;;5053352;27;92635;-79
2022/10/21 01:34:24;;;;;;;3.83;2.92;;;;;;;;;;5055275;27;93112;-79
2022/10/21 01:37:09;;;;;;;5.00;3.00;;;;;;;;;;5054106;27;93428;-78
2022/10/21 01:39:49;;;;;;;3.78;3.25;;;;;;;;;;5029588;28;92016;-79
2022/10/21 01:42:20;;;;;;;5.18;3.03;;;;;;;;;;5053271;27;92485;-79
2022/10/21 01:44:47;;;;;;;4.38;2.83;;;;;;;;;;5054553;27;93427;-78
2022/10/21 01:47:21;;;;;;;4.90;3.03;;;;;;;;;;5038194;27;94890;-79
2022/10/21 01:49:51;;;;;;;3.58;2.80;;;;;;;;;;5035214;27;93581;-78
2022/10/21 01:52:18;;;;;;;6.75;3.42;;;;;;;;;;5054398;27;92603;-78
2022/10/21 01:54:47;;;;;;;3.35;2.88;;;;;;;;;;5052996;27;93574;-78
2022/10/21 01:57:15;;;;;;;4.97;3.17;;;;;;;;;;5053394;27;94121;-79
2022/10/21 01:59:42;;;;;;;7.70;3.20;;;;;;;;;;5053785;27;93859;-79
2022/10/21 02:02:09;;;;;;;5.45;2.78;;;;;;;;;;5055495;27;93261;-78
2022/10/21 02:04:37;;;;;;;6.05;3.00;;;;;;;;;;5053875;27;92670;-78
2022/10/21 02:07:04;;;;;;;3.60;2.92;;;;;;;;;;5055056;27;92514;-78
2022/10/21 02:09:30;;;;;;;4.75;3.10;;;;;;;;;;5038809;27;94213;-78
2022/10/21 02:12:02;;;;;;;3.63;2.92;;;;;;;;;;5034738;27;94907;-79
2022/10/21 02:14:37;;;;;;;5.18;2.70;;;;;;;;;;5053140;27;95548;-79
2022/10/21 02:17:04;;;;;;;4.30;3.17;;;;;;;;;;5052667;27;93452;-78
2022/10/21 02:19:30;;;;;;;6.00;3.20;;;;;;;;;;5054311;27;92558;-78
2022/10/21 02:22:02;;;;;;;6.10;3.15;;;;;;;;;;5055142;27;92433;-78
2022/10/21 02:24:36;;;;;;;5.18;2.80;;;;;;;;;;5054854;27;93472;-78
2022/10/21 02:27:02;;;;;;;4.05;3.03;;;;;;;;;;5053488;27;92473;-78
2022/10/21 02:29:32;;;;;;;3.42;2.90;;;;;;;;;;5053481;27;93137;-78
2022/10/21 02:32:07;;;;;;;4.68;2.97;;;;;;;;;;5054142;27;93741;-78
2022/10/21 02:34:46;;;;;;;3.58;3.05;;;;;;;;;;5054615;27;93104;-79
2022/10/21 02:37:15;;;;;;;6.72;3.33;;;;;;;;;;5032871;27;95735;-79
2022/10/21 02:39:50;;;;;;;3.07;2.77;;;;;;;;;;5052715;27;93695;-79
2022/10/21 02:42:20;;;;;;;4.07;3.25;;;;;;;;;;5036438;27;93264;-79
2022/10/21 02:44:46;;;;;;;5.55;2.95;;;;;;;;;;5034400;27;93423;-79
2022/10/21 02:47:14;;;;;;;4.90;3.13;;;;;;;;;;5053474;27;92556;-79
2022/10/21 02:49:42;;;;;;;3.85;3.08;;;;;;;;;;5036823;27;93646;-79
2022/10/21 02:52:08;;;;;;;3.50;2.80;;;;;;;;;;5053745;27;94411;-79
2022/10/21 02:54:34;;;;;;;2.92;2.70;;;;;;;;;;5058018;27;91842;-79
2022/10/21 02:57:00;;;;;;;3.65;3.00;;;;;;;;;;5036057;27;96860;-78
2022/10/21 02:59:27;;;;;;;4.15;3.28;;;;;;;;;;5054329;27;93109;-79
2022/10/21 03:01:53;;;;;;;3.30;2.63;;;;;;;;;;5052534;27;95983;-79
2022/10/21 03:04:20;;;;;;;4.75;2.80;;;;;;;;;;5052283;27;93347;-78
2022/10/21 03:06:46;;;;;;;6.80;3.22;;;;;;;;;;5035409;27;93211;-79
2022/10/21 03:09:12;;;;;;;3.83;2.97;;;;;;;;;;5053308;27;93125;-78
2022/10/21 03:11:38;;;;;;;5.68;3.00;;;;;;;;;;5051369;27;93786;-79
2022/10/21 03:14:05;;;;;;;3.53;3.10;;;;;;;;;;5037478;27;92595;-78
2022/10/21 03:16:31;;;;;;;4.78;2.92;;;;;;;;;;5035475;27;93420;-78
2022/10/21 03:18:57;;;;;;;6.40;3.00;;;;;;;;;;5036838;27;91860;-78
2022/10/21 03:21:26;;;;;;;4.28;2.75;;;;;;;;;;5053542;27;93444;-78
2022/10/21 03:23:52;;;;;;;3.30;2.55;;;;;;;;;;5053472;27;93395;-78
2022/10/21 03:26:18;;;;;;;3.17;2.90;;;;;;;;;;5051925;27;95052;-78
2022/10/21 03:28:45;;;;;;;3.70;2.90;;;;;;;;;;5035087;27;95329;-78
2022/10/21 03:31:11;;;;;;;5.25;2.65;;;;;;;;;;5053246;27;93399;-78
2022/10/21 03:33:37;;;;;;;3.88;2.85;;;;;;;;;;5053837;27;92444;-78
2022/10/21 03:36:04;;;;;;;3.85;2.70;;;;;;;;;;5055672;27;93092;-78
2022/10/21 03:38:30;;;;;;;4.28;2.47;;;;;;;;;;5051319;27;92438;-78
2022/10/21 03:40:56;;;;;;;6.22;3.30;;;;;;;;;;5053209;27;93128;-78
2022/10/21 03:43:22;;;;;;;5.53;2.80;;;;;;;;;;5053008;27;93754;-78
2022/10/21 03:45:49;;;;;;;6.00;2.95;;;;;;;;;;5035170;27;93860;-78
2022/10/21 03:48:15;;;;;;;4.05;3.28;;;;;;;;;;5036099;27;92883;-78
2022/10/21 03:50:41;;;;;;;4.78;2.83;;;;;;;;;;5046559;27;95597;-78
2022/10/21 03:53:08;;;;;;;3.78;3.00;;;;;;;;;;5046323;27;92488;-78
2022/10/21 03:55:50;;;;;;;3.25;2.83;;;;;;;;;;5052826;27;93474;-78
2022/10/21 03:58:21;;;;;;;3.38;2.90;;;;;;;;;;5038592;27;94573;-78
2022/10/21 04:00:51;;;;;;;4.57;3.00;;;;;;;;;;5053851;27;93184;-78
2022/10/21 04:03:18;;;;;;;4.57;2.97;;;;;;;;;;5050709;27;93428;-78
2022/10/21 04:05:44;;;;;;;4.22;2.63;;;;;;;;;;5033994;27;93620;-78
2022/10/21 04:08:11;;;;;;;3.85;2.75;;;;;;;;;;5051390;27;93147;-77
2022/10/21 04:10:37;;;;;;;3.92;2.78;;;;;;;;;;5034125;27;93950;-78
2022/10/21 04:13:03;;;;;;;5.45;2.53;;;;;;;;;;5048131;27;92383;-79
2022/10/21 04:15:29;;;;;;;7.32;2.70;;;;;;;;;;5047634;27;95055;-79
2022/10/21 04:17:56;;;;;;;2.85;2.58;;;;;;;;;;5052094;27;93375;-79
2022/10/21 04:20:22;;;;;;;7.78;2.92;;;;;;;;;;5056603;27;92944;-79
2022/10/21 04:22:48;;;;;;;3.10;2.55;;;;;;;;;;5053820;27;93385;-79
2022/10/21 04:25:14;;;;;;;4.60;2.47;;;;;;;;;;5052546;27;92379;-79
2022/10/21 04:27:41;;;;;;;3.72;2.45;;;;;;;;;;5037290;27;93395;-78
2022/10/21 04:30:07;;;;;;;5.28;2.78;;;;;;;;;;5034059;27;94452;-78
2022/10/21 04:32:34;;;;;;;9.00;2.53;;;;;;;;;;5052915;27;91678;-73
2022/10/21 04:35:00;;;;;;;3.80;2.30;;;;;;;;;;5052220;27;92924;-73
2022/10/21 04:37:26;;;;;;;11.43;2.42;;;;;;;;;;5051438;27;95064;-79
2022/10/21 04:39:53;;;;;;;12.38;2.90;;;;;;;;;;5051537;27;96855;-78
2022/10/21 04:42:19;;;;;;;20.17;3.03;;;;;;;;;;5037872;27;95602;-80
2022/10/21 04:44:45;;;;;;;5.60;2.38;;;;;;;;;;5036067;27;93556;-78
2022/10/21 04:47:11;;;;;;;3.03;2.03;;;;;;;;;;5057178;27;93187;-77
2022/10/21 04:49:38;;;;;;;6.78;2.50;;;;;;;;;;5038235;27;93392;-78
2022/10/21 04:52:04;;;;;;;8.50;3.08;;;;;;;;;;5039931;27;92439;-78
2022/10/21 04:54:30;;;;;;;5.18;2.10;;;;;;;;;;5039400;27;93210;-78
2022/10/21 04:56:57;;;;;;;10.80;2.28;;;;;;;;;;5053789;27;92524;-78
2022/10/21 04:59:23;;;;;;;6.57;2.28;;;;;;;;;;5056992;27;92670;-78
2022/10/21 05:01:49;;;;;;;4.93;2.83;;;;;;;;;;5059919;27;92496;-78
2022/10/21 05:04:16;;;;;;;3.47;2.28;;;;;;;;;;5031858;27;94929;-78
2022/10/21 05:06:42;;;;;;;9.77;2.85;;;;;;;;;;5056005;27;96013;-78
2022/10/21 05:09:09;;;;;;;2.30;2.10;;;;;;;;;;5056182;27;93396;-78
2022/10/21 05:11:35;;;;;;;3.55;2.60;;;;;;;;;;5037936;27;93178;-78
2022/10/21 05:14:01;;;;;;;2.38;2.03;;;;;;;;;;5057224;27;93140;-79
2022/10/21 05:16:27;;;;;;;3.72;2.50;;;;;;;;;;5038888;27;93469;-78
2022/10/21 05:18:54;;;;;;;3.95;2.40;;;;;;;;;;5054700;27;92634;-79
2022/10/21 05:21:20;;;;;;;4.50;2.40;;;;;;;;;;5057706;27;93135;-77
2022/10/21 05:23:46;;;;;;;2.70;2.25;;;;;;;;;;5041828;27;94468;-77
2022/10/21 05:26:12;;;;;;;8.95;2.85;;;;;;;;;;5054360;27;93165;-77
2022/10/21 05:28:39;;;;;;;7.57;2.90;;;;;;;;;;5050747;27;96821;-77
2022/10/21 05:31:05;;;;;;;7.72;2.78;;;;;;;;;;5039109;27;92451;-77
2022/10/21 05:33:32;;;;;;;5.53;3.10;;;;;;;;;;5050615;27;93186;-73
2022/10/21 05:36:06;;;;;;;5.15;2.80;;;;;;;;;;5051857;27;93450;-72
2022/10/21 05:38:33;;;;;;;5.65;3.03;;;;;;;;;;5053135;27;92523;-76
2022/10/21 05:40:59;;;;;;;8.00;3.22;;;;;;;;;;5048543;27;94186;-77
2022/10/21 05:43:29;;;;;;;5.78;3.25;;;;;;;;;;5056478;27;92425;-77
2022/10/21 05:45:55;;;;;;;6.15;3.22;;;;;;;;;;5040915;27;92095;-77
2022/10/21 05:48:21;;;;;;;16.17;3.78;;;;;;;;;;5038491;27;93116;-77
2022/10/21 05:50:50;;;;;;;11.55;2.80;;;;;;;;;;5056557;27;92498;-77
2022/10/21 05:53:16;;;;;;;13.85;4.90;;;;;;;;;;5055145;27;94774;-76
2022/10/21 05:55:43;;;;;;;13.73;4.60;;;;;;;;;;5056166;27;93446;-77
2022/10/21 05:58:09;;;;;;;30.25;5.20;;;;;;;;;;5038593;27;92470;-77
2022/10/21 06:00:35;;;;;;;12.35;5.20;;;;;;;;;;5056645;27;93153;-77
2022/10/21 06:03:02;;;;;;;11.70;4.75;;;;;;;;;;5055825;27;93762;-77
2022/10/21 06:05:28;;;;;;;11.68;5.18;;;;;;;;;;5055863;27;92458;-77
2022/10/21 06:07:54;;;;;;;11.43;4.85;;;;;;;;;;5040995;27;93451;-76
2022/10/21 06:10:21;;;;;;;12.30;4.82;;;;;;;;;;5056571;27;91790;-77
2022/10/21 06:12:53;;;;;;;13.85;4.60;;;;;;;;;;5056405;27;92462;-77
2022/10/21 06:15:19;;;;;;;15.55;4.72;;;;;;;;;;5037784;27;93882;-77
2022/10/21 06:17:46;;;;;;;8.52;3.92;;;;;;;;;;5054438;27;95725;-77
2022/10/21 06:20:12;;;;;;;12.38;4.65;;;;;;;;;;5056200;27;95845;-77
2022/10/21 06:22:38;;;;;;;12.35;4.47;;;;;;;;;;5055645;27;93424;-77
2022/10/21 06:25:04;;;;;;;7.82;3.63;;;;;;;;;;5055587;27;92589;-76
2022/10/21 06:27:31;;;;;;;7.68;3.90;;;;;;;;;;5056115;27;93189;-77
2022/10/21 06:29:57;;;;;;;14.18;4.85;;;;;;;;;;5041281;27;94505;-77
2022/10/21 06:32:23;;;;;;;10.40;3.78;;;;;;;;;;5037979;27;93202;-76
2022/10/21 06:34:50;;;;;;;19.02;5.00;;;;;;;;;;5056227;27;92608;-77
2022/10/21 06:37:16;;;;;;;19.20;5.95;;;;;;;;;;5037858;27;92548;-77
2022/10/21 06:39:42;;;;;;;15.43;4.38;;;;;;;;;;5037890;27;93158;-77
2022/10/21 06:42:08;;;;;;;8.25;4.05;;;;;;;;;;5035906;27;95881;-76
2022/10/21 06:44:35;;;;;;;8.68;3.83;;;;;;;;;;5056351;27;92415;-77
2022/10/21 06:47:01;;;;;;;8.85;3.70;;;;;;;;;;5055569;27;93132;-76
2022/10/21 06:49:27;;;;;;;9.02;4.18;;;;;;;;;;5037541;27;93419;-77
2022/10/21 06:51:54;;;;;;;11.90;4.38;;;;;;;;;;5023975;27;92454;-77
2022/10/21 06:54:20;;;;;;;9.93;4.18;;;;;;;;;;5055370;27;93414;-76
2022/10/21 06:56:46;;;;;;;8.63;4.22;;;;;;;;;;5056164;27;92480;-77
2022/10/21 06:59:13;;;;;;;10.32;4.25;;;;;;;;;;5056055;27;93230;-77
2022/10/21 07:01:39;;;;;;;7.60;4.18;;;;;;;;;;5054931;27;94625;-77
2022/10/21 07:04:25;;;;;;;12.65;4.75;;;;;;;;;;5023187;28;92370;-77
2022/10/21 07:06:51;;;;;;;10.35;4.13;;;;;;;;;;5013714;28;94759;-76
2022/10/21 07:09:17;;;;;;;7.00;3.95;;;;;;;;;;5013750;28;93447;-77
2022/10/21 07:11:44;;;;;;;9.40;4.35;;;;;;;;;;5017079;28;92549;-77
2022/10/21 07:14:11;;;;;;;7.05;3.67;;;;;;;;;;5014825;28;93424;-77
2022/10/21 07:16:37;;;;;;;6.20;3.58;;;;;;;;;;5013598;28;92589;-76
2022/10/21 07:19:04;;;;;;;10.68;3.88;;;;;;;;;;5014913;28;92899;-77
2022/10/21 07:21:31;;;;;;;5.53;3.67;;;;;;;;;;5014456;28;93733;-77
2022/10/21 07:23:58;;;;;;;8.23;3.50;;;;;;;;;;5015661;28;91901;-77
2022/10/21 07:26:25;;;;;;;6.28;3.72;;;;;;;;;;5015044;28;92594;-77
2022/10/21 07:28:53;;;;;;;7.90;3.97;;;;;;;;;;5015003;28;93419;-77
2022/10/21 07:31:20;;;;;;;7.82;3.60;;;;;;;;;;5013201;28;94894;-77
2022/10/21 07:33:46;;;;;;;5.40;3.35;;;;;;;;;;5018164;28;95299;-77
2022/10/21 07:36:13;;;;;;;7.30;3.40;;;;;;;;;;5014905;28;92444;-77
2022/10/21 07:38:42;;;;;;;5.88;3.35;;;;;;;;;;5014690;28;93182;-77
2022/10/21 07:41:12;;;;;;;5.72;3.08;;;;;;;;;;5013531;28;93345;-76
2022/10/21 07:43:38;;;;;;;5.18;2.92;;;;;;;;;;5014997;28;92444;-76
2022/10/21 07:46:04;;;;;;;4.03;2.58;;;;;;;;;;5014333;28;93528;-77
2022/10/21 07:48:32;;;;;;;7.80;3.00;;;;;;;;;;5015389;28;93601;-77
2022/10/21 07:51:09;;;;;;;4.25;2.70;;;;;;;;;;5014931;28;92434;-77
2022/10/21 07:53:35;;;;;;;5.18;2.72;;;;;;;;;;5014305;28;93527;-77
2022/10/21 07:56:06;;;;;;;6.50;2.92;;;;;;;;;;5016204;28;96823;-76
2022/10/21 07:58:33;;;;;;;7.25;3.20;;;;;;;;;;5014366;28;94552;-77
2022/10/21 08:01:00;;;;;;;3.65;2.35;;;;;;;;;;5014364;28;93756;-77
2022/10/21 08:03:27;;;;;;;3.90;3.00;;;;;;;;;;5017569;27;92535;-77
2022/10/21 08:05:54;;;;;;;4.22;2.60;;;;;;;;;;5054961;27;93077;-77
2022/10/21 08:08:20;;;;;;;4.13;2.30;;;;;;;;;;5054387;27;93456;-77
2022/10/21 08:10:47;;;;;;;4.78;2.60;;;;;;;;;;5054881;27;92502;-76
2022/10/21 08:13:19;;;;;;;3.47;2.50;;;;;;;;;;5055311;27;93164;-77
2022/10/21 08:15:46;;;;;;;4.22;2.47;;;;;;;;;;5040507;27;93218;-76
2022/10/21 08:18:12;;;;;;;4.28;2.33;;;;;;;;;;5061278;27;92738;-77
2022/10/21 08:20:40;;;;;;;2.83;1.83;;;;;;;;;;5056749;27;99272;-77
2022/10/21 08:23:06;;;;;;;3.20;2.40;;;;;;;;;;5058144;27;92710;-76
2022/10/21 08:25:33;;;;;;;2.92;2.13;;;;;;;;;;5057995;27;93118;-76
2022/10/21 08:28:00;;;;;;;3.83;2.30;;;;;;;;;;5057479;27;93509;-77
2022/10/21 08:30:30;;;;;;;4.75;2.30;;;;;;;;;;5058058;27;92450;-77
2022/10/21 08:32:58;;;;;;;2.58;2.20;;;;;;;;;;5040463;27;93407;-77
2022/10/21 08:35:25;;;;;;;4.40;2.30;;;;;;;;;;5057737;27;93433;-76
2022/10/21 08:37:51;;;;;;;4.10;2.22;;;;;;;;;;5058298;27;91623;-77
2022/10/21 08:40:18;;;;;;;2.28;2.08;;;;;;;;;;5060575;27;92766;-77
2022/10/21 08:42:45;;;;;;;2.10;1.90;;;;;;;;;;5058017;27;92483;-77
2022/10/21 08:45:17;;;;;;;4.43;2.20;;;;;;;;;;5038323;27;94815;-77
2022/10/21 08:47:46;;;;;;;5.53;2.17;;;;;;;;;;5058071;27;93225;-76
2022/10/21 08:50:18;;;;;;;1.90;1.80;;;;;;;;;;5057889;27;92495;-76
2022/10/21 08:52:50;;;;;;;2.72;2.22;;;;;;;;;;5039168;27;93318;-77
2022/10/21 08:55:27;;;;;;;4.72;2.20;;;;;;;;;;5057651;27;93725;-76
2022/10/21 08:57:53;;;;;;;2.97;2.08;;;;;;;;;;5039431;27;92532;-76
2022/10/21 09:00:22;;;;;;;2.88;2.05;;;;;;;;;;5057507;27;93086;-77
2022/10/21 09:02:54;;;;;;;2.45;2.20;;;;;;;;;;5042605;27;92740;-76
2022/10/21 09:05:25;;;;;;;1.88;1.70;;;;;;;;;;5056837;27;92898;-77
2022/10/21 09:07:57;;;;;;;2.70;2.10;;;;;;;;;;5056777;27;93334;-76
2022/10/21 09:10:26;;;;;;;2.78;2.20;;;;;;;;;;5056608;27;94787;-76
2022/10/21 09:12:53;;;;;;;4.68;2.00;;;;;;;;;;5057617;27;95521;-77
2022/10/21 09:15:51;;;;;;;2.65;2.03;;;;;;;;;;5057522;27;92410;-77
2022/10/21 09:18:36;;;;;;;3.13;1.75;;;;;;;;;;4983626;27;92615;-77
2022/10/21 09:21:17;;;;;;;3.70;1.65;;;;;;;;;;5057202;27;93091;-77
2022/10/21 09:23:50;;;;;;;2.13;1.92;;;;;;;;;;5059833;27;93851;-77
2022/10/21 09:26:16;;;;;;;3.00;1.98;;;;;;;;;;5057032;27;93130;-76
2022/10/21 09:28:43;;;;;;;2.45;2.25;;;;;;;;;;5057138;27;93029;-77
2022/10/21 09:31:13;;;;;;;3.25;2.03;;;;;;;;;;5057014;27;92318;-77
2022/10/21 09:33:42;;;;;;;2.75;2.08;;;;;;;;;;5039531;27;94146;-77
2022/10/21 09:36:11;;;;;;;1.90;1.80;;;;;;;;;;5055054;27;95879;-76
2022/10/21 09:38:59;;;;;;;1.95;1.85;;;;;;;;;;5056447;27;92539;-77
2022/10/21 09:41:30;;;;;;;1.63;1.52;;;;;;;;;;5057034;27;93162;-76
2022/10/21 09:43:57;;;;;;;2.58;1.85;;;;;;;;;;5056684;27;93447;-76
2022/10/21 09:46:23;;;;;;;3.58;1.55;;;;;;;;;;5060343;27;92366;-76
2022/10/21 09:48:50;;;;;;;2.00;1.73;;;;;;;;;;5056520;27;93541;-77
2022/10/21 09:51:38;;;;;;;5.13;1.85;;;;;;;;;;5056882;27;92544;-77
2022/10/21 09:54:08;;;;;;;4.13;1.80;;;;;;;;;;5057297;27;92787;-77
2022/10/21 09:56:45;;;;;;;2.58;1.85;;;;;;;;;;5056596;27;93377;-76
2022/10/21 09:59:12;;;;;;;1.80;1.67;;;;;;;;;;5056925;27;92452;-77
2022/10/21 10:01:40;;;;;;;3.90;1.70;;;;;;;;;;5054684;27;94937;-77
2022/10/21 10:04:13;;;;;;;2.35;1.90;;;;;;;;;;5055566;27;93261;-76
2022/10/21 10:06:41;;;;;;;1.80;1.65;;;;;;;;;;5039112;27;92391;-76
2022/10/21 10:09:26;;;;;;;3.13;1.90;;;;;;;;;;5059860;27;92886;-76
2022/10/21 10:11:59;;;;;;;1.50;1.40;;;;;;;;;;5056888;27;92445;-77
2022/10/21 10:14:25;;;;;;;1.95;1.63;;;;;;;;;;5056203;27;92404;-77
2022/10/21 10:16:51;;;;;;;2.92;1.80;;;;;;;;;;5056157;27;93352;-77
2022/10/21 10:19:23;;;;;;;2.25;1.90;;;;;;;;;;5056810;27;91729;-77
2022/10/21 10:22:08;;;;;;;1.73;1.60;;;;;;;;;;5038256;27;92485;-77
2022/10/21 10:24:39;;;;;;;5.50;1.60;;;;;;;;;;5055647;27;92397;-77
2022/10/21 10:27:10;;;;;;;2.10;1.77;;;;;;;;;;5054324;27;94956;-77
2022/10/21 10:29:36;;;;;;;2.70;1.75;;;;;;;;;;5055811;27;95491;-77
2022/10/21 10:32:03;;;;;;;1.73;1.63;;;;;;;;;;5059635;27;96626;-77
2022/10/21 10:34:34;;;;;;;2.00;1.80;;;;;;;;;;5055993;27;93099;-77
2022/10/21 10:37:05;;;;;;;1.95;1.73;;;;;;;;;;5054195;27;93931;-77
2022/10/21 10:39:33;;;;;;;3.45;1.70;;;;;;;;;;5037888;27;92553;-76
2022/10/21 10:42:00;;;;;;;2.13;1.58;;;;;;;;;;5055890;27;93119;-77
2022/10/21 10:44:26;;;;;;;2.45;1.80;;;;;;;;;;5056096;27;92678;-76
2022/10/21 10:46:57;;;;;;;2.60;1.95;;;;;;;;;;5056068;27;92516;-77
2022/10/21 10:49:25;;;;;;;3.03;1.92;;;;;;;;;;5037531;27;93113;-77
2022/10/21 10:52:09;;;;;;;2.65;1.63;;;;;;;;;;5054022;27;95847;-77
2022/10/21 10:54:38;;;;;;;1.85;1.48;;;;;;;;;;5058714;27;92693;-76
2022/10/21 10:57:11;;;;;;;1.60;1.50;;;;;;;;;;5037668;27;93407;-76
2022/10/21 10:59:45;;;;;;;2.50;1.50;;;;;;;;;;5055529;27;92438;-76
2022/10/21 11:02:12;;;;;;;1.40;1.30;;;;;;;;;;5055165;27;93022;-77
2022/10/21 11:04:40;;;;;;;1.60;1.50;;;;;;;;;;5036794;27;93626;-77
2022/10/21 11:07:06;;;;;;;3.33;1.50;;;;;;;;;;5055443;27;92389;-77
2022/10/21 11:09:33;;;;;;;1.40;1.30;;;;;;;;;;5055760;27;93047;-77
2022/10/21 11:12:02;;;;;;;6.70;1.48;;;;;;;;;;5037768;27;93200;-77
2022/10/21 11:14:28;;;;;;;1.88;1.50;;;;;;;;;;5055239;27;92539;-77
2022/10/21 11:17:02;;;;;;;1.95;1.73;;;;;;;;;;5056804;27;94918;-76
2022/10/21 11:19:31;;;;;;;1.80;1.70;;;;;;;;;;5055356;27;92404;-77
2022/10/21 11:22:09;;;;;;;1.58;1.48;;;;;;;;;;5037258;27;93072;-76
2022/10/21 11:24:49;;;;;;;3.78;1.60;;;;;;;;;;5055658;27;93209;-77
2022/10/21 11:27:28;;;;;;;2.15;1.60;;;;;;;;;;5037507;27;92478;-77
2022/10/21 11:30:03;;;;;;;1.70;1.40;;;;;;;;;;5055095;27;93473;-77
2022/10/21 11:32:35;;;;;;;2.15;1.48;;;;;;;;;;5054901;27;93460;-76
2022/10/21 11:35:20;;;;;;;1.50;1.38;;;;;;;;;;5037721;27;91798;-77
2022/10/21 11:38:05;;;;;;;2.08;1.25;;;;;;;;;;5058201;27;92595;-76
2022/10/21 11:40:31;;;;;;;2.70;1.50;;;;;;;;;;5055148;27;92467;-76
2022/10/21 11:43:12;;;;;;;1.50;1.40;;;;;;;;;;5053708;27;94891;-77
2022/10/21 11:45:48;;;;;;;6.28;1.50;;;;;;;;;;5054358;27;93418;-77
2022/10/21 11:48:17;;;;;;;1.90;1.70;;;;;;;;;;5040584;27;92472;-77
2022/10/21 11:51:03;;;;;;;1.30;1.20;;;;;;;;;;5062191;27;97306;-76
2022/10/21 11:53:46;;;;;;;1.42;1.33;;;;;;;;;;5061610;27;93405;-77
2022/10/21 11:56:21;;;;;;;1.73;1.10;;;;;;;;;;5061268;27;92544;-77
2022/10/21 11:58:48;;;;;;;1.52;1.40;;;;;;;;;;5061854;27;94790;-77
2022/10/21 12:01:23;;;;;;;2.25;1.50;;;;;;;;;;5064933;27;93026;-76
2022/10/21 12:03:49;;;;;;;1.35;1.25;;;;;;;;;;5043167;27;92418;-77
2022/10/21 12:06:28;;;;;;;1.38;1.27;;;;;;;;;;5043423;27;93430;-77
2022/10/21 12:08:54;;;;;;;2.80;1.67;;;;;;;;;;5060625;27;94779;-77
2022/10/21 12:11:22;;;;;;;1.98;1.23;;;;;;;;;;5061520;27;96584;-76
2022/10/21 12:14:02;;;;;;;1.77;1.50;;;;;;;;;;5061445;27;93458;-76
2022/10/21 12:16:31;;;;;;;2.33;1.20;;;;;;;;;;5061778;27;92369;-76
2022/10/21 12:19:03;;;;;;;2.30;1.42;;;;;;;;;;5061393;27;93150;-76
2022/10/21 12:21:32;;;;;;;1.50;1.40;;;;;;;;;;5061130;27;93739;-77
2022/10/21 12:24:12;;;;;;;2.03;1.50;;;;;;;;;;5047020;27;92444;-77
2022/10/21 12:26:42;;;;;;;2.25;1.80;;;;;;;;;;5043469;27;92703;-76
2022/10/21 12:29:16;;;;;;;1.33;1.23;;;;;;;;;;5061312;27;92410;-76
2022/10/21 12:32:14;;;;;;;2.05;1.20;;;;;;;;;;5061339;27;93130;-77
2022/10/21 12:34:41;;;;;;;1.33;1.23;;;;;;;;;;5003394;27;95813;-77
2022/10/21 12:37:26;;;;;;;1.58;1.38;;;;;;;;;;5061228;27;92435;-76
2022/10/21 12:40:07;;;;;;;1.42;1.20;;;;;;;;;;5060832;27;93056;-77
2022/10/21 12:42:33;;;;;;;1.38;1.20;;;;;;;;;;5042943;27;93427;-77
2022/10/21 12:44:59;;;;;;;2.15;1.20;;;;;;;;;;5060805;27;92461;-77
2022/10/21 12:47:30;;;;;;;2.70;1.48;;;;;;;;;;5063958;27;93074;-76
2022/10/21 12:50:04;;;;;;;1.50;1.20;;;;;;;;;;5060901;27;92519;-77
2022/10/21 12:52:30;;;;;;;1.30;1.20;;;;;;;;;;5043287;27;93039;-77
2022/10/21 12:55:01;;;;;;;2.85;1.50;;;;;;;;;;5060872;27;93830;-77
2022/10/21 12:57:34;;;;;;;3.45;1.35;;;;;;;;;;5043225;27;92409;-76
2022/10/21 13:00:19;;;;;;;1.58;1.10;;;;;;;;;;5056203;27;94891;-77
2022/10/21 13:03:06;;;;;;;2.15;1.20;;;;;;;;;;5057226;27;93466;-77
2022/10/21 13:05:53;;;;;;;2.70;1.30;;;;;;;;;;5056937;27;92492;-77
2022/10/21 13:08:19;;;;;;;1.50;1.35;;;;;;;;;;5039728;27;93069;-77
2022/10/21 13:11:04;;;;;;;1.00;1.00;;;;;;;;;;5060340;27;93417;-77
2022/10/21 13:13:30;;;;;;;1.83;1.25;;;;;;;;;;5039590;27;93426;-77
2022/10/21 13:15:57;;;;;;;1.52;1.25;;;;;;;;;;5056841;27;93489;-77
2022/10/21 13:18:42;;;;;;;1.40;1.25;;;;;;;;;;5058002;27;91682;-77
2022/10/21 13:21:35;;;;;;;1.70;1.48;;;;;;;;;;5057351;27;92384;-77
2022/10/21 13:24:10;;;;;;;1.85;1.10;;;;;;;;;;5052208;27;93505;-77
2022/10/21 13:26:45;;;;;;;1.20;1.10;;;;;;;;;;5055626;27;94842;-76
2022/10/21 13:29:11;;;;;;;1.35;1.10;;;;;;;;;;5056938;27;95454;-77
2022/10/21 13:31:41;;;;;;;2.60;1.25;;;;;;;;;;5056687;27;93500;-76
2022/10/21 13:34:23;;;;;;;1.08;1.02;;;;;;;;;;5060197;27;92644;-77
2022/10/21 13:36:51;;;;;;;1.30;1.20;;;;;;;;;;5056628;27;93463;-77
2022/10/21 13:39:22;;;;;;;1.33;1.23;;;;;;;;;;5056535;27;92581;-77
2022/10/21 13:42:12;;;;;;;1.02;1.00;;;;;;;;;;5038193;27;93157;-77
2022/10/21 13:44:49;;;;;;;1.73;1.27;;;;;;;;;;5046645;27;93020;-77
2022/10/21 13:47:27;;;;;;;1.77;1.40;;;;;;;;;;5038582;27;92468;-77
2022/10/21 13:49:55;;;;;;;1.25;1.05;;;;;;;;;;5056786;27;93036;-77
2022/10/21 13:52:25;;;;;;;2.15;1.33;;;;;;;;;;5054566;27;95887;-77
2022/10/21 13:54:58;;;;;;;1.75;1.50;;;;;;;;;;5042284;27;92536;-77
2022/10/21 13:57:32;;;;;;;3.80;1.60;;;;;;;;;;5038222;27;93467;-77
2022/10/21 14:00:06;;;;;;;1.13;1.02;;;;;;;;;;5056650;27;92423;-77
2022/10/21 14:02:32;;;;;;;1.55;1.40;;;;;;;;;;5056041;27;93096;-77
2022/10/21 14:04:59;;;;;;;1.73;1.38;;;;;;;;;;5055820;27;93426;-77
2022/10/21 14:07:26;;;;;;;4.00;1.30;;;;;;;;;;5056364;27;92426;-77
2022/10/21 14:09:54;;;;;;;1.40;1.30;;;;;;;;;;5056962;27;93117;-77
2022/10/21 14:12:23;;;;;;;1.50;1.40;;;;;;;;;;5054946;27;93414;-77
2022/10/21 14:14:50;;;;;;;1.58;1.05;;;;;;;;;;5038002;27;92465;-77
2022/10/21 14:17:18;;;;;;;1.77;1.40;;;;;;;;;;5057592;27;94786;-77
2022/10/21 14:19:46;;;;;;;1.40;1.30;;;;;;;;;;5056612;27;92404;-77
2022/10/21 14:22:16;;;;;;;1.67;1.50;;;;;;;;;;5056296;27;93112;-77
2022/10/21 14:24:44;;;;;;;1.20;1.10;;;;;;;;;;5056794;27;94434;-77
2022/10/21 14:27:18;;;;;;;2.25;1.40;;;;;;;;;;5038354;27;92469;-77
2022/10/21 14:29:45;;;;;;;1.73;1.23;;;;;;;;;;5056546;27;92867;-77
2022/10/21 14:32:12;;;;;;;1.10;1.10;;;;;;;;;;5055846;27;93553;-77
2022/10/21 14:35:04;;;;;;;1.73;1.30;;;;;;;;;;5056388;27;91596;-77
2022/10/21 14:37:49;;;;;;;1.60;1.30;;;;;;;;;;5055864;27;92499;-77
2022/10/21 14:40:30;;;;;;;5.35;1.52;;;;;;;;;;5059149;27;93437;-77
2022/10/21 14:43:16;;;;;;;1.48;1.17;;;;;;;;;;5054333;27;94863;-79
2022/10/21 14:45:43;;;;;;;1.25;1.15;;;;;;;;;;5055636;27;93882;-79
2022/10/21 14:48:10;;;;;;;1.30;1.20;;;;;;;;;;5055543;27;92461;-78
2022/10/21 14:50:37;;;;;;;1.73;1.42;;;;;;;;;;5056173;27;93054;-79
2022/10/21 14:53:12;;;;;;;1.70;1.10;;;;;;;;;;5056217;27;94794;-79
2022/10/21 14:55:39;;;;;;;1.33;1.23;;;;;;;;;;5055936;27;92449;-79
2022/10/21 14:58:09;;;;;;;3.05;1.45;;;;;;;;;;5055790;27;93037;-79